Time;durP1;ratioP1;P1;durP2;ratioP2;P2;SDS_P1;SDS_P2;PMS_P1;PMS_P2;Temp;Humidity;BMP_temperature;BMP_pressure;BME280_temperature;BME280_humidity;BME280_pressure;Samples;Min_cycle;Max_cycle;Signal;HPM_P1;HPM_P2
2021/09/14 00:00:52;;;;;;;5.65;3.97;;;;;;;13.34;82.66;100952.81;5055151;28;20032;-79
2021/09/14 00:03:18;;;;;;;11.30;4.95;;;;;;;13.37;82.73;100948.34;5046174;28;20037;-79
2021/09/14 00:05:43;;;;;;;7.50;4.47;;;;;;;13.35;82.58;100951.91;5031593;28;20069;-80
2021/09/14 00:08:09;;;;;;;5.72;4.05;;;;;;;13.32;83.38;100951.94;5053277;28;20037;-79
2021/09/14 00:10:34;;;;;;;7.22;4.57;;;;;;;13.30;82.85;100956.38;5032408;28;20025;-79
2021/09/14 00:12:59;;;;;;;7.03;4.57;;;;;;;13.28;82.80;100952.88;5050574;28;20122;-79
2021/09/14 00:15:25;;;;;;;4.97;3.90;;;;;;;13.27;82.90;100957.28;5049513;28;20147;-79
2021/09/14 00:17:50;;;;;;;6.70;4.18;;;;;;;13.30;82.78;100959.03;5050234;28;20045;-80
2021/09/14 00:20:15;;;;;;;6.85;3.88;;;;;;;13.26;82.24;100950.25;5051382;28;20052;-80
2021/09/14 00:22:41;;;;;;;6.88;4.00;;;;;;;13.23;81.49;100955.56;5055697;28;20037;-79
2021/09/14 00:25:07;;;;;;;5.65;4.00;;;;;;;13.15;81.74;100955.63;5045474;28;20120;-79
2021/09/14 00:27:32;;;;;;;5.75;4.20;;;;;;;13.08;82.71;100956.56;5047359;28;20043;-79
2021/09/14 00:29:57;;;;;;;5.97;3.92;;;;;;;13.07;83.02;100954.81;5044094;28;20550;-79
2021/09/14 00:32:23;;;;;;;7.40;4.60;;;;;;;13.12;83.08;100957.41;5030423;28;20103;-79
2021/09/14 00:34:48;;;;;;;8.32;3.97;;;;;;;13.08;82.71;100951.28;5043310;28;20044;-79
2021/09/14 00:37:14;;;;;;;4.72;3.58;;;;;;;13.06;82.68;100945.09;5047238;28;20048;-79
2021/09/14 00:39:39;;;;;;;4.47;3.13;;;;;;;13.04;82.62;100949.53;5028174;28;20029;-79
2021/09/14 00:42:04;;;;;;;11.63;4.05;;;;;;;13.03;82.85;100947.78;5049115;28;20480;-80
2021/09/14 00:44:30;;;;;;;6.65;4.32;;;;;;;13.01;83.04;100946.91;5031249;28;20025;-79
2021/09/14 00:46:55;;;;;;;4.70;3.90;;;;;;;12.97;83.05;100950.50;5048535;28;20460;-79
2021/09/14 00:49:20;;;;;;;6.70;4.78;;;;;;;12.90;82.55;100952.31;5046990;28;20091;-79
2021/09/14 00:51:46;;;;;;;5.90;4.45;;;;;;;12.85;82.87;100947.97;5050424;28;20068;-79
2021/09/14 00:54:15;;;;;;;5.15;3.70;;;;;;;12.82;83.47;100948.00;5048874;28;20036;-79
2021/09/14 00:56:42;;;;;;;6.10;3.85;;;;;;;12.83;83.92;100952.38;5047378;28;20369;-78
2021/09/14 00:59:08;;;;;;;6.22;3.63;;;;;;;12.84;83.81;100946.22;5029007;28;20025;-78
2021/09/14 01:01:33;;;;;;;5.78;3.83;;;;;;;12.83;83.67;100940.00;5031445;28;20171;-79
2021/09/14 01:03:59;;;;;;;8.18;4.43;;;;;;;12.83;83.65;100945.31;5020127;28;20068;-78
2021/09/14 01:06:24;;;;;;;5.50;3.85;;;;;;;12.80;83.73;100940.03;5049471;28;20041;-79
2021/09/14 01:08:51;;;;;;;5.45;3.42;;;;;;;12.82;84.22;100930.31;5049797;28;20037;-79
2021/09/14 01:11:17;;;;;;;6.20;4.05;;;;;;;12.84;84.30;100928.53;5046579;28;20033;-79
2021/09/14 01:13:42;;;;;;;7.60;3.95;;;;;;;12.88;84.82;100934.69;5038277;28;20076;-78
2021/09/14 01:16:11;;;;;;;6.55;3.88;;;;;;;12.94;85.06;100932.88;5049338;28;20085;-79
2021/09/14 01:18:39;;;;;;;6.78;3.85;;;;;;;13.00;85.50;100934.56;5013562;28;20041;-78
2021/09/14 01:21:06;;;;;;;6.50;4.35;;;;;;;13.03;85.90;100937.19;5049254;28;20026;-78
2021/09/14 01:23:32;;;;;;;5.20;4.25;;;;;;;13.04;85.86;100930.13;5030414;28;20025;-78
2021/09/14 01:26:00;;;;;;;7.78;4.43;;;;;;;13.07;85.47;100933.63;5034441;28;20033;-79
2021/09/14 01:28:26;;;;;;;6.35;4.13;;;;;;;13.10;85.59;100930.94;5045871;28;20116;-78
2021/09/14 01:30:51;;;;;;;8.85;4.20;;;;;;;13.12;85.38;100926.47;5034091;28;20025;-79
2021/09/14 01:33:17;;;;;;;5.47;4.05;;;;;;;13.13;85.31;100928.25;5044035;28;20489;-79
2021/09/14 01:35:43;;;;;;;6.93;3.88;;;;;;;13.12;85.29;100933.56;5064073;28;20482;-79
2021/09/14 01:38:11;;;;;;;6.82;4.15;;;;;;;13.12;85.02;100937.09;5051866;28;20057;-78
2021/09/14 01:40:38;;;;;;;7.43;4.22;;;;;;;13.12;84.63;100934.44;5041653;28;20026;-78
2021/09/14 01:43:07;;;;;;;5.70;4.18;;;;;;;13.10;84.76;100923.00;5051164;28;20189;-78
2021/09/14 01:45:33;;;;;;;6.47;3.78;;;;;;;13.10;84.68;100928.28;5051381;28;20037;-79
2021/09/14 01:48:00;;;;;;;6.05;3.83;;;;;;;13.11;84.68;100930.03;5033259;28;20033;-79
2021/09/14 01:50:25;;;;;;;6.07;3.75;;;;;;;13.11;84.65;100930.03;5053506;28;20109;-77
2021/09/14 01:52:51;;;;;;;6.28;4.10;;;;;;;13.11;84.49;100935.34;5040976;28;20029;-79
2021/09/14 01:55:19;;;;;;;7.72;4.10;;;;;;;13.10;84.37;100933.59;5035670;28;20033;-79
2021/09/14 01:57:46;;;;;;;5.00;3.60;;;;;;;13.10;84.49;100938.91;5050430;28;20056;-78
2021/09/14 02:00:18;;;;;;;7.57;4.25;;;;;;;13.10;84.65;100944.19;5035349;28;20025;-78
2021/09/14 02:03:10;;;;;;;5.38;3.88;;;;;;;13.07;84.91;100930.97;5045469;28;20395;-79
2021/09/14 02:05:59;;;;;;;7.07;4.65;;;;;;;13.02;84.56;100937.19;5031774;28;20036;-79
2021/09/14 02:08:43;;;;;;;5.80;3.78;;;;;;;12.98;84.66;100939.00;5045140;28;20475;-79
2021/09/14 02:38:24;;;;;;;6.03;4.63;;;;;;;13.03;83.92;100931.03;5053981;28;20033;-79
2021/09/14 02:39:09;;;;;;;7.15;4.32;;;;;;;12.94;83.88;100937.25;5037874;28;20049;-78
2021/09/14 03:01:01;;;;;;;7.90;4.85;;;;;;;12.68;84.87;100934.84;5049707;28;20033;-78
2021/09/14 03:03:28;;;;;;;6.50;4.78;;;;;;;12.62;85.13;100929.59;5047711;28;20028;-79
2021/09/14 03:05:54;;;;;;;6.63;4.35;;;;;;;12.56;85.43;100925.25;5037752;28;20026;-79
2021/09/14 03:08:22;;;;;;;6.93;4.90;;;;;;;12.53;85.21;100922.63;5031145;28;20032;-79
2021/09/14 03:10:48;;;;;;;6.65;5.95;;;;;;;12.47;85.13;100923.56;5020793;28;20108;-78
2021/09/14 03:13:13;;;;;;;10.27;7.07;;;;;;;12.45;85.50;100916.53;5031817;28;20108;-78
2021/09/14 03:15:39;;;;;;;7.90;6.43;;;;;;;12.43;85.99;100910.34;5047324;28;20445;-78
2021/09/14 03:18:04;;;;;;;9.40;6.63;;;;;;;12.44;85.90;100913.00;5049462;28;20092;-79
2021/09/14 03:20:30;;;;;;;10.63;6.95;;;;;;;12.46;85.60;100907.69;5039339;28;20059;-79
2021/09/14 03:22:55;;;;;;;9.73;6.78;;;;;;;12.43;85.69;100908.56;5026210;28;20028;-77
2021/09/14 03:25:21;;;;;;;9.18;7.30;;;;;;;12.44;85.21;100904.16;5051835;28;20037;-78
2021/09/14 03:27:47;;;;;;;8.95;6.43;;;;;;;12.46;85.57;100900.59;5045562;28;20035;-78
2021/09/14 03:30:13;;;;;;;8.10;5.53;;;;;;;12.50;86.06;100898.84;5034021;28;20033;-78
2021/09/14 03:32:39;;;;;;;11.07;5.93;;;;;;;12.51;85.69;100895.28;5052207;28;20053;-78
2021/09/14 03:35:05;;;;;;;5.93;5.00;;;;;;;12.52;85.35;100891.72;5056329;28;20033;-78
2021/09/14 03:37:31;;;;;;;6.82;5.78;;;;;;;12.51;85.60;100895.28;5033159;28;20521;-78
2021/09/14 03:40:00;;;;;;;6.40;4.38;;;;;;;12.51;85.54;100895.28;5045720;28;20171;-79
2021/09/14 03:42:25;;;;;;;7.35;5.18;;;;;;;12.50;85.78;100893.53;5045518;28;20069;-79
2021/09/14 03:44:50;;;;;;;9.57;6.55;;;;;;;12.50;84.91;100893.53;5031643;28;20033;-79
2021/09/14 03:47:16;;;;;;;7.80;5.72;;;;;;;12.47;85.20;100889.16;5044715;28;20120;-78
2021/09/14 03:49:43;;;;;;;8.30;5.60;;;;;;;12.45;85.52;100890.06;5045756;28;20037;-78
2021/09/14 03:52:09;;;;;;;6.30;5.28;;;;;;;12.42;85.83;100884.78;5050531;28;20033;-79
2021/09/14 03:54:35;;;;;;;8.27;5.60;;;;;;;12.40;85.48;100884.78;5049839;28;20029;-79
2021/09/14 03:57:01;;;;;;;6.57;5.70;;;;;;;12.38;85.74;100878.63;5031122;28;20092;-79
2021/09/14 03:59:27;;;;;;;7.18;5.40;;;;;;;12.34;85.28;100879.53;5019511;28;20020;-78
2021/09/14 04:01:56;;;;;;;7.53;5.45;;;;;;;12.31;85.51;100884.84;5054755;28;20045;-79
2021/09/14 04:04:30;;;;;;;6.93;4.90;;;;;;;12.28;85.50;100893.69;5041464;28;20044;-78
2021/09/14 04:07:11;;;;;;;9.25;6.97;;;;;;;12.26;86.01;100884.91;5027662;28;20503;-78
2021/09/14 04:09:38;;;;;;;11.90;7.80;;;;;;;12.28;85.77;100882.22;5034184;28;20026;-78
2021/09/14 04:12:10;;;;;;;8.38;5.93;;;;;;;12.27;85.89;100889.28;5040260;28;20510;-79
2021/09/14 04:14:35;;;;;;;9.43;6.35;;;;;;;12.28;85.91;100895.44;5046565;28;20048;-78
2021/09/14 04:17:01;;;;;;;7.13;5.90;;;;;;;12.31;86.27;100892.78;5053717;28;20036;-78
2021/09/14 04:19:27;;;;;;;8.45;5.95;;;;;;;12.32;85.64;100883.97;5051307;28;20096;-79
2021/09/14 04:21:54;;;;;;;7.65;5.65;;;;;;;12.31;86.35;100886.63;5034743;28;20112;-78
2021/09/14 04:24:26;;;;;;;8.30;6.10;;;;;;;12.27;85.94;100888.41;5037847;28;20056;-79
2021/09/14 04:26:51;;;;;;;25.15;18.83;;;;;;;12.25;86.41;100888.41;5023034;28;20041;-78
2021/09/14 04:29:17;;;;;;;15.77;12.85;;;;;;;12.24;86.56;100885.81;5053132;28;20036;-79
2021/09/14 04:31:42;;;;;;;15.88;9.77;;;;;;;12.25;86.99;100883.13;5051744;28;20065;-78
2021/09/14 04:34:08;;;;;;;6.97;5.75;;;;;;;12.28;86.74;100887.50;5060365;28;20033;-77
2021/09/14 04:36:33;;;;;;;7.28;5.63;;;;;;;12.30;86.39;100884.88;5046084;28;20033;-78
2021/09/14 04:39:01;;;;;;;5.32;4.25;;;;;;;12.28;86.65;100877.81;5046104;28;20033;-77
2021/09/14 04:41:29;;;;;;;6.25;4.88;;;;;;;12.30;86.22;100884.88;5036586;28;20027;-78
2021/09/14 04:43:54;;;;;;;6.95;5.57;;;;;;;12.33;86.05;100890.13;5059960;28;20032;-78
2021/09/14 04:46:19;;;;;;;9.48;5.47;;;;;;;12.35;86.28;100885.72;5054828;28;20049;-78
2021/09/14 04:48:45;;;;;;;7.32;5.10;;;;;;;12.37;86.78;100886.59;5047939;28;20121;-79
2021/09/14 04:51:10;;;;;;;6.30;4.50;;;;;;;12.40;86.09;100881.25;5044753;28;20029;-78
2021/09/14 04:53:36;;;;;;;6.10;4.38;;;;;;;12.41;86.38;100880.38;5030089;28;20033;-78
2021/09/14 04:56:01;;;;;;;10.75;6.18;;;;;;;12.43;85.71;100887.41;5049612;28;20025;-79
2021/09/14 04:58:29;;;;;;;9.32;7.55;;;;;;;12.48;86.42;100879.44;5048138;28;20112;-78
2021/09/14 05:00:56;;;;;;;8.30;6.30;;;;;;;12.53;86.29;100876.75;5054530;28;20051;-78
2021/09/14 05:03:21;;;;;;;9.10;6.93;;;;;;;12.57;86.31;100887.28;5039309;28;20033;-78
2021/09/14 05:05:47;;;;;;;10.07;8.05;;;;;;;12.60;86.31;100879.34;5040878;28;20502;-78
2021/09/14 05:08:13;;;;;;;10.55;6.70;;;;;;;12.66;85.99;100878.41;5056523;28;20048;-79
2021/09/14 05:10:38;;;;;;;11.15;8.82;;;;;;;12.72;86.63;100884.50;5054109;28;20033;-78
2021/09/14 05:13:05;;;;;;;10.52;9.07;;;;;;;12.79;86.14;100879.16;5049477;28;20470;-78
2021/09/14 05:15:32;;;;;;;13.90;8.30;;;;;;;12.85;86.06;100879.09;5046881;28;20039;-78
2021/09/14 05:18:20;;;;;;;8.50;6.93;;;;;;;12.90;85.87;100877.28;5048369;28;20037;-79
2021/09/14 05:20:50;;;;;;;10.50;7.72;;;;;;;12.97;85.44;100875.41;5047625;28;20029;-79
2021/09/14 05:23:15;;;;;;;10.68;8.40;;;;;;;12.98;85.56;100875.41;5039325;28;20026;-79
2021/09/14 05:25:44;;;;;;;10.85;7.70;;;;;;;12.99;85.65;100871.88;5048705;28;20495;-79
2021/09/14 05:28:12;;;;;;;9.23;7.47;;;;;;;13.00;85.48;100873.63;5040677;28;20033;-79
2021/09/14 05:30:39;;;;;;;10.98;7.57;;;;;;;13.04;85.35;100878.00;5031886;28;20079;-79
2021/09/14 05:33:05;;;;;;;10.50;8.32;;;;;;;13.10;85.22;100880.59;5038227;28;20047;-79
2021/09/14 05:35:52;;;;;;;12.20;8.48;;;;;;;13.10;85.13;100882.38;5051658;28;20034;-78
2021/09/14 05:38:21;;;;;;;11.73;9.50;;;;;;;13.14;85.14;100884.94;5038557;28;20039;-79
2021/09/14 05:40:47;;;;;;;11.75;8.57;;;;;;;13.20;85.48;100876.03;5052363;28;20052;-78
2021/09/14 05:43:23;;;;;;;9.70;7.75;;;;;;;13.28;85.24;100874.25;5044238;28;20039;-78
2021/09/14 05:45:49;;;;;;;13.75;8.98;;;;;;;13.36;85.28;100882.06;5048980;28;20036;-79
2021/09/14 05:48:15;;;;;;;9.65;8.65;;;;;;;13.40;84.71;100881.16;5037945;28;20029;-79
2021/09/14 05:50:42;;;;;;;9.30;7.05;;;;;;;13.47;85.02;100882.84;5043603;28;20518;-79
2021/09/14 05:53:08;;;;;;;13.23;8.38;;;;;;;13.52;84.88;100878.38;5017502;28;20033;-79
2021/09/14 05:55:38;;;;;;;8.07;6.82;;;;;;;13.59;84.71;100879.16;5048757;28;20029;-78
2021/09/14 05:58:05;;;;;;;10.18;7.63;;;;;;;13.67;84.51;100879.03;5051068;28;20037;-79
2021/09/14 06:00:31;;;;;;;9.30;6.88;;;;;;;13.73;84.88;100879.84;5038450;28;20028;-78
2021/09/14 06:02:57;;;;;;;11.57;7.95;;;;;;;13.81;84.53;100887.72;5042050;28;20030;-78
2021/09/14 06:05:22;;;;;;;8.23;7.35;;;;;;;13.90;84.15;100882.25;5037410;28;20043;-79
2021/09/14 06:07:49;;;;;;;8.82;7.10;;;;;;;13.97;84.42;100875.97;5031924;28;20029;-79
2021/09/14 06:10:15;;;;;;;10.05;7.13;;;;;;;14.02;84.38;100882.09;5052902;28;20025;-79
2021/09/14 06:12:59;;;;;;;7.80;6.68;;;;;;;14.08;84.52;100874.94;5047080;28;20033;-78
2021/09/14 06:15:25;;;;;;;9.02;6.57;;;;;;;14.15;84.22;100874.81;5048943;28;20036;-79
2021/09/14 06:17:51;;;;;;;12.18;7.70;;;;;;;14.24;84.23;100873.78;5048906;28;20044;-78
2021/09/14 06:20:16;;;;;;;15.23;8.05;;;;;;;14.32;84.11;100874.56;5046396;28;20025;-79
2021/09/14 06:22:42;;;;;;;10.43;8.23;;;;;;;14.48;84.16;100877.81;5052197;28;20025;-79
2021/09/14 06:25:08;;;;;;;10.15;7.85;;;;;;;14.57;83.98;100880.38;5049164;28;20120;-79
2021/09/14 06:27:33;;;;;;;11.60;7.05;;;;;;;14.63;83.80;100884.69;5037934;28;20071;-79
2021/09/14 06:30:00;;;;;;;10.15;7.13;;;;;;;14.70;83.83;100881.03;5030327;28;20097;-79
2021/09/14 06:32:25;;;;;;;10.13;6.85;;;;;;;14.75;83.55;100880.94;5041883;28;20064;-78
2021/09/14 06:34:56;;;;;;;9.02;7.70;;;;;;;14.83;83.53;100877.25;5029561;28;20091;-79
2021/09/14 06:37:21;;;;;;;7.32;6.03;;;;;;;14.89;83.39;100879.78;5040598;28;20033;-79
2021/09/14 06:39:46;;;;;;;10.40;7.18;;;;;;;14.95;83.42;100880.59;5040348;28;20053;-79
2021/09/14 06:42:12;;;;;;;12.30;8.75;;;;;;;15.02;83.18;100883.09;5031633;28;20066;-79
2021/09/14 06:44:40;;;;;;;11.32;8.38;;;;;;;15.08;83.26;100888.28;5046320;28;20032;-79
2021/09/14 06:47:10;;;;;;;11.73;8.90;;;;;;;15.17;83.23;100889.03;5035841;28;20380;-79
2021/09/14 06:49:36;;;;;;;9.75;8.30;;;;;;;15.21;83.08;100885.41;5050502;28;20038;-79
2021/09/14 06:52:01;;;;;;;11.85;8.07;;;;;;;15.26;83.00;100889.72;5050379;28;20471;-80
2021/09/14 06:54:26;;;;;;;10.82;7.50;;;;;;;15.34;82.57;100882.47;5049127;28;20633;-79
2021/09/14 06:56:52;;;;;;;11.45;7.30;;;;;;;15.44;82.86;100882.28;5049791;28;20029;-81
2021/09/14 06:59:17;;;;;;;11.73;9.70;;;;;;;15.58;82.32;100877.53;5048436;28;20475;-80
2021/09/14 07:01:43;;;;;;;15.20;12.40;;;;;;;15.68;82.13;100876.44;5039556;28;20090;-81
2021/09/14 07:04:08;;;;;;;13.68;11.43;;;;;;;15.81;81.48;100881.53;5056601;28;20067;-81
2021/09/14 07:06:33;;;;;;;11.40;10.07;;;;;;;15.89;81.44;100883.13;5032820;28;20024;-81
2021/09/14 07:08:59;;;;;;;14.48;12.45;;;;;;;15.98;80.86;100885.59;5046932;28;20510;-80
2021/09/14 07:11:24;;;;;;;15.15;12.68;;;;;;;16.07;80.83;100889.81;5039649;28;20376;-79
2021/09/14 07:13:52;;;;;;;11.77;10.13;;;;;;;16.15;80.63;100892.28;5029559;28;20060;-79
2021/09/14 07:16:17;;;;;;;10.57;8.43;;;;;;;16.21;80.21;100893.00;5048725;28;20033;-80
2021/09/14 07:18:42;;;;;;;10.65;7.80;;;;;;;16.26;79.95;100894.69;5047049;28;20041;-79
2021/09/14 07:21:08;;;;;;;9.48;8.07;;;;;;;16.32;79.91;100886.56;5051337;28;20044;-79
2021/09/14 07:23:33;;;;;;;11.48;9.23;;;;;;;16.46;79.74;100886.25;5060070;28;20035;-80
2021/09/14 07:25:59;;;;;;;11.00;9.50;;;;;;;16.54;79.38;100882.47;5047764;28;20040;-80
2021/09/14 07:28:24;;;;;;;10.15;7.82;;;;;;;16.57;79.22;100886.84;5051666;28;20123;-80
2021/09/14 07:30:50;;;;;;;9.70;7.60;;;;;;;16.62;79.11;100888.47;5054054;28;20035;-80
2021/09/14 07:33:16;;;;;;;9.52;6.93;;;;;;;16.72;79.00;100888.25;5046553;28;20048;-80
2021/09/14 07:35:42;;;;;;;9.73;6.93;;;;;;;16.89;78.84;100890.50;5035524;28;20078;-80
2021/09/14 07:38:09;;;;;;;8.65;7.22;;;;;;;17.02;78.33;100889.25;5049576;28;20435;-80
2021/09/14 07:40:35;;;;;;;13.40;8.85;;;;;;;17.20;77.80;100885.19;5054130;28;20060;-80
2021/09/14 07:43:01;;;;;;;12.00;9.02;;;;;;;17.36;77.49;100885.63;5045091;28;20073;-79
2021/09/14 07:45:27;;;;;;;12.95;8.90;;;;;;;17.52;76.49;100879.81;5062183;28;20039;-82
2021/09/14 07:47:52;;;;;;;10.05;6.80;;;;;;;17.63;76.33;100894.63;5056214;28;20078;-82
2021/09/14 07:50:17;;;;;;;9.68;6.55;;;;;;;17.72;76.18;100883.69;5045789;28;20028;-82
2021/09/14 07:52:43;;;;;;;14.43;11.00;;;;;;;17.77;75.90;100884.44;5046298;28;20522;-81
2021/09/14 07:55:08;;;;;;;11.73;10.00;;;;;;;17.81;75.53;100882.56;5048314;28;20514;-80
2021/09/14 07:57:34;;;;;;;10.05;8.32;;;;;;;17.85;74.94;100885.09;5045856;28;20064;-80
2021/09/14 07:59:59;;;;;;;10.75;9.27;;;;;;;17.86;75.44;100891.31;5046984;28;20441;-79
2021/09/14 08:02:25;;;;;;;16.30;11.73;;;;;;;17.98;75.11;100887.41;5044298;28;20044;-79
2021/09/14 08:04:51;;;;;;;12.23;10.65;;;;;;;18.05;74.88;100886.25;5043912;28;20043;-80
2021/09/14 08:07:16;;;;;;;12.95;9.50;;;;;;;18.18;74.30;100887.63;5054595;28;20040;-80
2021/09/14 08:09:42;;;;;;;13.10;10.38;;;;;;;18.33;74.13;100880.91;5030495;28;20128;-80
2021/09/14 08:12:07;;;;;;;12.98;11.60;;;;;;;18.42;74.30;100877.06;5044239;28;20049;-79
2021/09/14 08:14:33;;;;;;;12.15;9.43;;;;;;;18.54;73.12;100880.19;5053569;28;20036;-80
2021/09/14 08:16:58;;;;;;;8.20;6.85;;;;;;;18.59;72.59;100877.38;5044764;28;20059;-80
2021/09/14 08:19:24;;;;;;;8.10;6.80;;;;;;;18.67;72.27;100869.97;5046394;28;20034;-79
2021/09/14 08:21:51;;;;;;;8.85;6.65;;;;;;;18.74;72.77;100871.50;5027389;28;20471;-80
2021/09/14 08:24:16;;;;;;;13.90;8.07;;;;;;;18.85;72.20;100878.31;5035418;28;20069;-80
2021/09/14 08:26:42;;;;;;;10.68;7.40;;;;;;;18.97;71.95;100880.59;5046248;28;20087;-80
2021/09/14 08:29:10;;;;;;;31.17;13.40;;;;;;;19.06;70.95;100877.56;5026735;28;20553;-80
2021/09/14 08:31:35;;;;;;;15.60;12.00;;;;;;;19.16;70.76;100875.44;5046191;28;20072;-80
2021/09/14 08:34:00;;;;;;;20.83;13.35;;;;;;;19.27;70.73;100865.19;5044019;28;20030;-80
2021/09/14 08:36:26;;;;;;;10.27;7.78;;;;;;;19.37;70.29;100866.63;5047204;28;20037;-79
2021/09/14 08:38:52;;;;;;;12.02;7.68;;;;;;;19.42;69.74;100861.97;5043029;28;20033;-80
2021/09/14 08:41:18;;;;;;;9.77;6.68;;;;;;;19.48;69.47;100860.84;5047439;28;20036;-80
2021/09/14 08:43:46;;;;;;;7.75;5.50;;;;;;;19.58;69.66;100869.41;5043674;28;20061;-80
2021/09/14 08:46:13;;;;;;;9.50;6.07;;;;;;;19.67;69.12;100869.94;5048523;28;20033;-80
2021/09/14 08:48:39;;;;;;;9.20;7.20;;;;;;;19.77;69.32;100858.91;5036214;28;20041;-80
2021/09/14 08:51:05;;;;;;;10.68;6.30;;;;;;;19.74;68.22;100856.34;5048682;28;20091;-80
2021/09/14 08:53:34;;;;;;;8.02;5.18;;;;;;;19.74;68.47;100854.53;5045433;28;20450;-80
2021/09/14 08:55:59;;;;;;;11.45;8.52;;;;;;;19.90;68.51;100855.66;5046893;28;20032;-80
2021/09/14 08:58:25;;;;;;;9.35;6.82;;;;;;;20.07;68.32;100860.38;5043791;28;20041;-80
2021/09/14 09:00:51;;;;;;;8.30;6.65;;;;;;;20.22;68.16;100853.50;5046165;28;20029;-80
2021/09/14 09:03:28;;;;;;;22.30;13.50;;;;;;;20.38;66.95;100855.53;5026742;28;20040;-81
2021/09/14 09:05:55;;;;;;;14.35;12.75;;;;;;;20.51;67.27;100862.13;5046407;28;20491;-80
2021/09/14 09:08:25;;;;;;;13.80;11.68;;;;;;;20.63;66.26;100855.41;5043626;28;20140;-80
2021/09/14 09:11:09;;;;;;;11.63;9.30;;;;;;;20.78;66.39;100855.63;5046379;28;20118;-80
2021/09/14 09:13:43;;;;;;;8.02;6.38;;;;;;;20.91;64.74;100855.97;5047133;28;20048;-80
2021/09/14 09:16:19;;;;;;;6.95;4.55;;;;;;;21.00;64.16;100854.69;5045585;28;20052;-80
2021/09/14 09:18:56;;;;;;;9.45;5.90;;;;;;;21.10;64.74;100857.84;5044807;28;20685;-80
2021/09/14 09:21:40;;;;;;;6.40;5.70;;;;;;;21.24;63.43;100855.38;5048940;28;20120;-80
2021/09/14 09:24:08;;;;;;;7.10;5.93;;;;;;;21.36;63.40;100854.84;5051027;28;20056;-80
2021/09/14 09:26:36;;;;;;;7.72;5.35;;;;;;;21.45;62.23;100854.44;5049210;28;20526;-80
2021/09/14 09:29:05;;;;;;;10.23;5.90;;;;;;;21.54;61.55;100854.97;5034763;28;20043;-81
2021/09/14 09:31:32;;;;;;;6.95;5.00;;;;;;;21.65;61.46;100860.72;5052186;28;20037;-80
2021/09/14 09:34:05;;;;;;;7.18;5.57;;;;;;;21.74;60.37;100856.72;5032307;28;20525;-80
2021/09/14 09:36:40;;;;;;;9.55;6.40;;;;;;;21.85;60.46;100857.97;5030750;28;20029;-80
2021/09/14 09:39:08;;;;;;;7.60;5.35;;;;;;;21.91;58.71;100858.59;5034395;28;20029;-81
2021/09/14 09:41:38;;;;;;;7.15;4.90;;;;;;;22.01;59.14;100852.72;5058230;28;20025;-80
2021/09/14 09:44:10;;;;;;;6.47;3.85;;;;;;;22.05;56.56;100839.97;5053397;28;20128;-80
2021/09/14 09:46:35;;;;;;;5.57;3.47;;;;;;;22.13;55.68;100837.78;5052164;28;20056;-80
2021/09/14 09:49:04;;;;;;;5.03;3.78;;;;;;;22.23;55.20;100839.09;5051460;28;20063;-80
2021/09/14 09:51:30;;;;;;;12.05;8.75;;;;;;;22.36;56.20;100828.59;5061301;28;20024;-79
2021/09/14 09:53:56;;;;;;;10.48;7.35;;;;;;;22.39;55.71;100832.97;5052657;28;20063;-81
2021/09/14 09:56:24;;;;;;;13.18;10.63;;;;;;;22.53;55.76;100831.31;5046951;28;20373;-81
2021/09/14 09:58:51;;;;;;;14.52;10.35;;;;;;;22.64;55.49;100830.75;5033718;28;20049;-80
2021/09/14 10:01:19;;;;;;;13.75;9.65;;;;;;;22.73;54.77;100824.03;5050596;28;20120;-80
2021/09/14 10:04:00;;;;;;;12.68;10.07;;;;;;;22.85;55.08;100826.09;5051359;28;20550;-80
2021/09/14 10:06:56;;;;;;;12.10;8.27;;;;;;;22.99;54.11;100825.38;5056165;28;20083;-80
2021/09/14 10:09:29;;;;;;;9.50;8.50;;;;;;;23.07;54.54;100830.34;5041813;28;20057;-81
2021/09/14 10:11:56;;;;;;;8.52;6.75;;;;;;;23.10;54.27;100831.06;5045828;28;20029;-80
2021/09/14 10:14:21;;;;;;;9.63;8.07;;;;;;;23.10;52.70;100820.28;5041255;28;20507;-81
2021/09/14 10:16:48;;;;;;;10.75;9.32;;;;;;;23.17;53.62;100821.69;5064040;28;20077;-80
2021/09/14 10:19:18;;;;;;;10.70;7.10;;;;;;;23.19;52.01;100814.41;5047562;28;20483;-80
2021/09/14 10:22:05;;;;;;;8.27;5.90;;;;;;;23.16;52.63;100819.97;5049484;28;20041;-79
2021/09/14 10:24:32;;;;;;;9.27;6.93;;;;;;;23.31;52.77;100815.56;5052008;28;20443;-80
2021/09/14 10:27:08;;;;;;;7.47;5.70;;;;;;;23.42;51.85;100812.25;5045588;28;20041;-79
2021/09/14 10:29:35;;;;;;;8.93;6.80;;;;;;;23.51;52.04;100805.53;5046009;28;20715;-80
2021/09/14 10:32:05;;;;;;;12.25;10.57;;;;;;;23.62;52.83;100812.03;5045122;28;20029;-79
2021/09/14 10:34:33;;;;;;;8.57;7.68;;;;;;;23.68;52.34;100807.25;5046799;28;20041;-80
2021/09/14 10:37:00;;;;;;;9.27;8.20;;;;;;;23.78;51.37;100800.44;5046509;28;20055;-80
2021/09/14 10:39:26;;;;;;;5.97;5.03;;;;;;;23.79;51.22;100804.88;5047577;28;20034;-80
2021/09/14 10:41:54;;;;;;;10.73;7.60;;;;;;;23.90;51.84;100804.25;5047149;28;20094;-80
2021/09/14 10:44:27;;;;;;;9.60;6.68;;;;;;;24.01;51.21;100791.88;5046959;28;20037;-79
2021/09/14 10:47:07;;;;;;;8.02;7.20;;;;;;;23.96;50.04;100799.38;5048399;28;20076;-78
2021/09/14 10:49:59;;;;;;;10.10;8.93;;;;;;;24.00;50.01;100800.94;5049009;28;20037;-79
2021/09/14 10:52:41;;;;;;;8.70;6.25;;;;;;;24.01;50.27;100799.97;5049163;28;20029;-80
2021/09/14 10:55:15;;;;;;;9.07;7.95;;;;;;;24.13;50.81;100795.72;5036933;28;20187;-80
2021/09/14 10:57:46;;;;;;;8.10;6.97;;;;;;;24.13;50.72;100805.59;5046272;28;20057;-79
2021/09/14 11:00:17;;;;;;;6.32;4.72;;;;;;;24.08;50.31;100796.91;5046436;28;20096;-81
2021/09/14 11:02:55;;;;;;;9.13;8.23;;;;;;;23.98;50.40;100797.47;5046618;28;20073;-82
2021/09/14 11:05:25;;;;;;;9.80;7.97;;;;;;;24.10;50.49;100789.59;5048815;28;20055;-82
2021/09/14 11:07:57;;;;;;;11.30;7.00;;;;;;;24.24;50.30;100792.38;5044378;28;20041;-82
2021/09/14 11:10:22;;;;;;;10.00;9.00;;;;;;;24.39;50.33;100793.28;5027942;28;20033;-81
2021/09/14 11:12:47;;;;;;;6.85;5.65;;;;;;;24.52;50.12;100790.75;5030255;28;20056;-81
2021/09/14 11:15:14;;;;;;;10.10;9.00;;;;;;;24.56;49.80;100784.22;5044638;28;20033;-81
2021/09/14 11:17:39;;;;;;;14.15;9.90;;;;;;;24.63;50.14;100785.59;5047649;28;20136;-81
2021/09/14 11:20:18;;;;;;;9.13;6.22;;;;;;;24.79;49.56;100772.03;5027806;28;20518;-81
2021/09/14 11:22:43;;;;;;;11.70;9.38;;;;;;;24.88;49.74;100766.03;5044723;28;20128;-81
2021/09/14 11:25:17;;;;;;;10.65;9.00;;;;;;;24.89;49.06;100770.50;5029560;28;20076;-82
2021/09/14 11:28:09;;;;;;;7.97;7.18;;;;;;;24.94;48.74;100771.03;5045311;28;20492;-81
2021/09/14 11:30:36;;;;;;;6.20;5.18;;;;;;;25.19;48.83;100766.84;5048445;28;20104;-81
2021/09/14 11:33:02;;;;;;;8.90;7.00;;;;;;;25.43;48.22;100767.97;5044326;28;20115;-81
2021/09/14 11:35:29;;;;;;;7.63;6.25;;;;;;;25.63;47.51;100758.56;5030189;28;20048;-82
2021/09/14 11:38:04;;;;;;;8.98;6.05;;;;;;;25.75;45.75;100748.78;5043050;28;20041;-81
2021/09/14 11:40:32;;;;;;;10.73;6.63;;;;;;;25.79;45.79;100751.19;5046752;28;20032;-82
2021/09/14 11:43:02;;;;;;;8.20;7.40;;;;;;;26.08;45.97;100758.34;5034745;28;20029;-82
2021/09/14 11:45:32;;;;;;;9.48;7.13;;;;;;;26.35;44.81;100755.59;5028267;28;20078;-81
2021/09/14 11:47:59;;;;;;;7.70;6.25;;;;;;;26.46;44.85;100758.44;5045589;28;20065;-81
2021/09/14 11:50:35;;;;;;;8.02;6.07;;;;;;;26.37;43.79;100753.66;5044492;28;20124;-81
2021/09/14 11:53:16;;;;;;;5.30;3.80;;;;;;;26.43;42.90;100759.50;5036157;28;20029;-81
2021/09/14 11:55:44;;;;;;;4.95;3.55;;;;;;;26.41;43.82;100758.78;5042950;28;20038;-82
2021/09/14 11:58:10;;;;;;;6.68;4.18;;;;;;;26.34;43.43;100751.19;5033948;28;20040;-82
2021/09/14 12:00:38;;;;;;;7.15;3.75;;;;;;;26.24;44.08;100749.09;5030747;28;20029;-81
2021/09/14 12:03:04;;;;;;;11.55;9.90;;;;;;;26.63;44.46;100750.03;5047217;28;20032;-81
2021/09/14 12:05:29;;;;;;;10.40;7.88;;;;;;;27.15;43.70;100750.91;5043567;28;20028;-82
2021/09/14 12:07:59;;;;;;;5.82;4.38;;;;;;;27.53;42.07;100745.41;5047082;28;20474;-81
2021/09/14 12:10:25;;;;;;;6.18;4.15;;;;;;;27.48;41.32;100736.78;5041794;28;20034;-82